Saturday, January 20, 2018, 3:34 AM GMT
Back to Local

CWSD, Summerside Automatic Weather Reporting System

Location: , , Canada Lat: 46.433
Local Time: 3:34 AM GMT ( 3:34 GMT) Lon: -63.85
Time Zone: GMT Elev: 78 ft

Show me the last for .
Show Decoded

2018-01-20 02:00 METAR CWSD 200200Z AUTO 19005KT M15/M16 RMK AO1 SOG 14 5002 SLP112 T11521155 =
2018-01-20 01:00 METAR CWSD 200100Z AUTO 16007KT M14/M15 RMK AO1 SOG 14 8010 SLP105 T11381149 =
2018-01-20 00:00 METAR CWSD 200000Z AUTO 21002KT M17/M18 RMK AO1 SOG 14 0000 SLP113 T11651180 =
2018-01-19 23:00 METAR CWSD 192300Z AUTO 23005KT M14/M15 RMK AO1 SOG 14 0003 SLP114 T11421152 =
2018-01-19 22:00 METAR CWSD 192200Z AUTO 21002KT M12/M13 RMK AO1 SOG 14 1009 SLP115 T11171126 =
2018-01-19 21:00 METAR CWSD 192100Z AUTO 30004KT M10/M12 RMK AO1 SOG 15 2009 SLP113 T11031119 =
2018-01-19 20:00 METAR CWSD 192000Z AUTO 29008KT M08/M10 RMK AO1 SOG 15 3008 SLP111 T10791101 =
2018-01-19 19:00 METAR CWSD 191900Z AUTO 29006KT M07/M09 RMK AO1 SOG 15 3001 SLP106 T10721094 =
2018-01-19 17:00 METAR CWSD 191700Z AUTO 33005KT M07/M09 RMK AO1 SOG 16 8003 SLP103 T10711090 =
2018-01-19 16:00 METAR CWSD 191600Z AUTO 33007KT M08/M09 RMK AO1 SOG 16 8001 SLP105 T10761094 =
2018-01-19 15:00 METAR CWSD 191500Z AUTO 33008KT M08/M10 RMK AO1 SOG 16 1005 SLP108 T10751101 =
2018-01-19 14:00 METAR CWSD 191400Z AUTO 32008KT M09/M11 RMK AO1 SOG 16 1009 SLP106 T10931109 =
2018-01-19 13:00 METAR CWSD 191300Z AUTO 32007KT M10/M12 RMK AO1 SOG 16 1015 SLP106 T11011115 =
2018-01-19 11:00 METAR CWSD 191100Z AUTO 32006KT M12/M14 RMK AO1 SOG 16 3005 SLP097 T11241135 =
2018-01-19 10:00 METAR CWSD 191000Z AUTO 33008KT M12/M13 RMK AO1 SOG 16 5000 SLP090 T11181128 =
2018-01-19 09:00 METAR CWSD 190900Z AUTO 34009KT M11/M12 RMK AO1 SOG 16 0007 SLP088 T11141124 =
2018-01-19 08:00 METAR CWSD 190800Z AUTO 33004KT M10/M11 RMK AO1 SOG 16 1012 SLP091 T10951113 =
2018-01-19 06:00 METAR CWSD 190600Z AUTO 28002KT M11/M12 RMK AO1 SOG 16 5004 SLP081 T11131121 =
2018-01-19 05:00 METAR CWSD 190500Z AUTO 23003KT M11/M11 RMK AO1 SOG 16 8010 SLP079 T11061112 =
2018-01-19 04:00 METAR CWSD 190400Z AUTO 24004KT M13/M14 RMK AO1 SOG 16 1001 SLP087 T11281142 =

Support USWX by starting your Amazon purchase here.